createdAt,value
2019-05-21T00:00:07.423Z,11.60
2019-05-21T00:02:35.933Z,13.13
2019-05-21T00:05:08.055Z,12.73
2019-05-21T00:07:36.479Z,15.70
2019-05-21T00:10:06.642Z,16.60
2019-05-21T00:12:35.520Z,18.00
2019-05-21T00:15:04.210Z,18.47
2019-05-21T00:17:32.644Z,17.77
2019-05-21T00:20:01.019Z,17.00
2019-05-21T00:22:29.441Z,17.57
2019-05-21T00:24:57.894Z,19.00
2019-05-21T00:27:26.289Z,19.43
2019-05-21T00:30:30.973Z,18.63
2019-05-21T00:33:35.401Z,18.60
2019-05-21T00:36:41.337Z,18.23
2019-05-21T00:39:46.310Z,18.63
2019-05-21T00:42:17.783Z,20.43
2019-05-21T00:44:46.201Z,18.87
2019-05-21T00:47:14.752Z,17.47
2019-05-21T00:49:43.112Z,19.50
2019-05-21T00:52:11.615Z,20.07
2019-05-21T00:54:40.017Z,19.47
2019-05-21T00:57:08.488Z,22.17
2019-05-21T00:59:36.891Z,20.20
2019-05-21T01:02:05.308Z,20.33
2019-05-21T01:04:33.769Z,21.97
2019-05-21T01:07:02.567Z,22.07
2019-05-21T01:09:31.013Z,22.57
2019-05-21T01:11:59.478Z,18.53
2019-05-21T01:14:27.872Z,18.47
2019-05-21T01:16:56.291Z,19.87
2019-05-21T01:19:24.693Z,17.43
2019-05-21T01:21:53.117Z,18.10
2019-05-21T01:24:21.517Z,14.47
2019-05-21T01:26:49.939Z,15.10
2019-05-21T01:29:18.356Z,13.23
2019-05-21T01:31:46.766Z,10.40
2019-05-21T01:34:15.173Z,10.10
2019-05-21T01:36:43.580Z,12.00
2019-05-21T01:39:12.042Z,12.13
2019-05-21T01:41:40.531Z,12.80
2019-05-21T01:44:08.999Z,13.40
2019-05-21T01:46:37.410Z,14.23
2019-05-21T01:49:05.824Z,14.73
2019-05-21T01:51:34.219Z,14.87
2019-05-21T01:54:02.842Z,13.13
2019-05-21T01:56:31.249Z,14.00
2019-05-21T01:58:59.702Z,14.23
2019-05-21T02:01:28.110Z,14.53
2019-05-21T02:03:56.523Z,14.40
2019-05-21T02:06:25.328Z,15.20
2019-05-21T02:08:53.737Z,14.60
2019-05-21T02:11:22.140Z,15.43
2019-05-21T02:13:50.623Z,14.40
2019-05-21T02:16:19.049Z,12.20
2019-05-21T02:18:47.470Z,12.83
2019-05-21T02:21:15.905Z,11.90
2019-05-21T02:23:44.318Z,11.93
2019-05-21T02:26:12.794Z,11.80
2019-05-21T02:28:41.229Z,12.37
2019-05-21T02:31:09.632Z,11.90
2019-05-21T02:33:38.056Z,12.10
2019-05-21T02:36:06.728Z,11.93
2019-05-21T02:38:35.153Z,12.63
2019-05-21T02:41:03.546Z,12.70
2019-05-21T02:43:31.959Z,11.03
2019-05-21T02:46:00.365Z,10.63
2019-05-21T02:48:28.806Z,11.27
2019-05-21T02:50:57.200Z,10.63
2019-05-21T02:53:25.625Z,10.73
2019-05-21T02:55:54.022Z,12.07
2019-05-21T02:58:22.441Z,11.77
2019-05-21T03:00:58.403Z,10.60
2019-05-21T03:03:28.444Z,12.03
2019-05-21T03:06:12.344Z,12.20
2019-05-21T03:08:26.984Z,11.20
2019-05-21T03:10:55.382Z,13.27
2019-05-21T03:13:23.799Z,12.80
2019-05-21T03:15:52.213Z,11.60
2019-05-21T03:18:20.635Z,13.33
2019-05-21T03:20:49.103Z,13.53
2019-05-21T03:23:17.536Z,13.10
2019-05-21T03:25:45.972Z,12.87
2019-05-21T03:28:14.384Z,13.90
2019-05-21T03:30:42.839Z,12.40
2019-05-21T03:33:11.309Z,15.20
2019-05-21T03:35:39.742Z,13.83
2019-05-21T03:38:08.117Z,12.87
2019-05-21T03:40:36.528Z,13.77
2019-05-21T03:43:04.941Z,14.13
2019-05-21T03:45:33.360Z,13.53
2019-05-21T03:48:01.758Z,14.67
2019-05-21T03:50:30.168Z,14.70
2019-05-21T03:52:58.581Z,13.13
2019-05-21T03:55:26.997Z,14.73
2019-05-21T03:57:55.403Z,15.13
2019-05-21T04:00:23.818Z,13.70
2019-05-21T04:02:52.217Z,14.50
2019-05-21T04:05:25.314Z,16.33
2019-05-21T04:07:53.790Z,14.43
2019-05-21T04:10:22.859Z,14.60
2019-05-21T04:13:06.643Z,14.90
2019-05-21T04:15:38.430Z,14.60
2019-05-21T04:18:11.450Z,12.90
2019-05-21T04:20:39.847Z,13.83
2019-05-21T04:23:08.247Z,13.57
2019-05-21T04:25:36.726Z,14.83
2019-05-21T04:28:05.127Z,14.07
2019-05-21T04:30:33.568Z,14.20
2019-05-21T04:33:02.017Z,13.70
2019-05-21T04:35:30.382Z,14.63
2019-05-21T04:37:58.791Z,12.83
2019-05-21T04:40:27.209Z,13.70
2019-05-21T04:42:55.614Z,13.00
2019-05-21T04:45:24.029Z,13.70
2019-05-21T04:47:52.433Z,14.20
2019-05-21T04:50:20.899Z,13.50
2019-05-21T04:52:49.270Z,14.80
2019-05-21T04:55:17.699Z,15.97
2019-05-21T04:57:46.101Z,15.20
2019-05-21T05:00:14.768Z,15.97
2019-05-21T05:02:43.213Z,16.27
2019-05-21T05:05:11.770Z,16.37
2019-05-21T05:07:40.172Z,17.23
2019-05-21T05:10:08.728Z,17.30
2019-05-21T05:12:37.145Z,17.40
2019-05-21T05:15:06.680Z,18.07
2019-05-21T05:17:35.116Z,17.33
2019-05-21T05:20:04.163Z,17.50
2019-05-21T05:22:32.574Z,17.43
2019-05-21T05:25:00.999Z,17.17
2019-05-21T05:27:29.394Z,18.33
2019-05-21T05:29:57.805Z,18.37
2019-05-21T05:32:26.675Z,18.07
2019-05-21T05:34:55.072Z,18.90
2019-05-21T05:37:23.489Z,19.13
2019-05-21T05:39:51.892Z,19.20
2019-05-21T05:42:20.296Z,19.90
2019-05-21T05:44:48.697Z,17.43
2019-05-21T05:47:17.195Z,19.40
2019-05-21T05:49:52.953Z,20.80
2019-05-21T05:52:21.363Z,19.23
2019-05-21T05:54:49.767Z,20.67
2019-05-21T05:57:18.189Z,21.30
2019-05-21T05:59:46.590Z,20.43
2019-05-21T06:02:15.017Z,21.37
2019-05-21T06:04:43.425Z,23.53
2019-05-21T06:07:11.846Z,24.17
2019-05-21T06:09:40.251Z,24.60
2019-05-21T06:12:08.656Z,24.17
2019-05-21T06:14:37.063Z,24.53
2019-05-21T06:17:05.506Z,23.63
2019-05-21T06:19:33.914Z,25.93
2019-05-21T06:22:02.332Z,24.03
2019-05-21T06:24:30.729Z,25.30
2019-05-21T06:26:59.143Z,26.30
2019-05-21T06:29:27.550Z,27.10
2019-05-21T06:31:55.963Z,24.87
2019-05-21T06:34:24.452Z,25.63
2019-05-21T06:36:52.872Z,25.13
2019-05-21T06:39:21.277Z,25.80
2019-05-21T06:41:49.734Z,27.00
2019-05-21T06:44:18.144Z,26.83
2019-05-21T06:46:46.588Z,26.20
2019-05-21T06:49:15.031Z,28.67
2019-05-21T06:51:44.192Z,28.00
2019-05-21T06:54:12.598Z,28.80
2019-05-21T06:56:41.038Z,28.03
2019-05-21T06:59:09.454Z,26.93
2019-05-21T07:01:37.867Z,27.03
2019-05-21T07:04:06.309Z,27.93
2019-05-21T07:06:34.731Z,29.20
2019-05-21T07:09:04.308Z,28.10
2019-05-21T07:11:32.719Z,28.20
2019-05-21T07:14:01.134Z,28.17
2019-05-21T07:16:29.543Z,31.00
2019-05-21T07:18:57.949Z,30.27
2019-05-21T07:21:26.358Z,31.37
2019-05-21T07:23:54.776Z,30.53
2019-05-21T07:26:23.181Z,32.40
2019-05-21T07:28:52.739Z,32.53
2019-05-21T07:31:21.803Z,34.00
2019-05-21T07:33:50.218Z,32.70
2019-05-21T07:36:18.630Z,34.37
2019-05-21T07:38:53.212Z,35.30
2019-05-21T07:41:20.267Z,35.10
2019-05-21T07:43:47.330Z,37.77
2019-05-21T07:46:15.737Z,36.83
2019-05-21T07:48:44.162Z,34.57
2019-05-21T07:51:12.564Z,35.30
2019-05-21T07:53:40.986Z,33.13
2019-05-21T07:56:09.388Z,32.40
2019-05-21T07:58:37.809Z,33.73
2019-05-21T08:01:06.222Z,34.40
2019-05-21T08:03:34.640Z,33.90
2019-05-21T08:06:03.050Z,35.87
2019-05-21T08:08:31.472Z,35.60
2019-05-21T08:10:59.874Z,34.30
2019-05-21T08:13:28.281Z,36.87
2019-05-21T08:15:56.681Z,33.90
2019-05-21T08:18:25.100Z,31.43
2019-05-21T08:20:53.549Z,31.40
2019-05-21T08:23:21.952Z,29.70
2019-05-21T08:25:50.435Z,31.53
2019-05-21T08:28:18.866Z,29.83
2019-05-21T08:30:47.290Z,30.20
2019-05-21T08:33:15.702Z,30.33
2019-05-21T08:35:44.105Z,28.27
2019-05-21T08:38:12.527Z,30.70
2019-05-21T08:40:40.944Z,29.80
2019-05-21T08:43:09.357Z,31.20
2019-05-21T08:45:37.768Z,32.90
2019-05-21T08:48:06.216Z,30.63
2019-05-21T08:50:34.607Z,29.03
2019-05-21T08:53:03.221Z,28.27
2019-05-21T08:55:31.589Z,28.03
2019-05-21T08:58:07.044Z,27.70
2019-05-21T09:00:30.659Z,24.53
2019-05-21T09:02:59.073Z,26.40
2019-05-21T09:05:27.469Z,25.80
2019-05-21T09:07:56.033Z,23.17
2019-05-21T09:10:24.437Z,24.13
2019-05-21T09:12:52.846Z,25.93
2019-05-21T09:15:21.386Z,23.73
2019-05-21T09:17:49.792Z,20.83
2019-05-21T09:20:18.657Z,21.27
2019-05-21T09:22:47.141Z,20.77
2019-05-21T09:25:15.544Z,20.43
2019-05-21T09:27:43.952Z,20.20
2019-05-21T09:30:13.094Z,17.70
2019-05-21T09:32:41.499Z,17.20
2019-05-21T09:35:10.478Z,17.50
2019-05-21T09:37:38.956Z,16.50
2019-05-21T09:40:08.358Z,16.27
2019-05-21T09:42:36.772Z,17.23
2019-05-21T09:45:09.408Z,19.57
2019-05-21T09:47:37.870Z,17.53
2019-05-21T09:50:07.470Z,17.93
2019-05-21T09:52:35.867Z,21.20
2019-05-21T09:55:05.726Z,20.70
2019-05-21T09:57:54.295Z,20.13
2019-05-21T10:00:34.724Z,21.97
2019-05-21T10:03:05.267Z,19.93
2019-05-21T10:05:33.666Z,21.13
2019-05-21T10:08:02.105Z,21.57
2019-05-21T10:10:30.512Z,21.47
2019-05-21T10:12:58.925Z,22.67
2019-05-21T10:15:27.345Z,23.80
2019-05-21T10:17:55.793Z,22.90
2019-05-21T10:20:24.301Z,23.50
2019-05-21T10:22:52.707Z,22.93
2019-05-21T10:25:21.129Z,24.67
2019-05-21T10:27:49.538Z,23.63
2019-05-21T10:30:18.051Z,23.30
2019-05-21T10:32:46.460Z,23.23
2019-05-21T10:35:14.952Z,24.37
2019-05-21T10:37:54.573Z,24.17
2019-05-21T10:40:13.743Z,23.60
2019-05-21T10:42:42.166Z,23.57
2019-05-21T10:45:10.799Z,23.37
2019-05-21T10:47:39.197Z,22.90
2019-05-21T10:50:08.315Z,20.93
2019-05-21T10:52:36.743Z,20.00
2019-05-21T10:55:09.772Z,19.70
2019-05-21T10:57:38.181Z,20.77
2019-05-21T11:00:10.072Z,19.80
2019-05-21T11:02:40.109Z,21.47
2019-05-21T11:05:10.399Z,18.30
2019-05-21T11:07:38.798Z,16.83
2019-05-21T11:10:08.839Z,18.20
2019-05-21T11:12:37.239Z,18.30
2019-05-21T11:15:08.877Z,18.77
2019-05-21T11:17:49.927Z,17.63
2019-05-21T11:20:07.753Z,15.13
2019-05-21T11:22:36.184Z,14.73
2019-05-21T11:25:06.363Z,14.50
2019-05-21T11:27:34.767Z,11.43
2019-05-21T11:30:03.851Z,9.73
2019-05-21T11:32:32.256Z,8.20
2019-05-21T11:35:00.668Z,7.33
2019-05-21T11:37:29.079Z,7.70
2019-05-21T11:39:57.502Z,7.50
2019-05-21T11:42:25.899Z,7.70
2019-05-21T11:44:54.309Z,7.87
2019-05-21T11:47:22.721Z,8.30
2019-05-21T11:49:51.147Z,9.17
2019-05-21T11:52:19.541Z,9.07
2019-05-21T11:54:47.947Z,9.17
2019-05-21T11:57:16.429Z,8.23
2019-05-21T11:59:44.844Z,9.37
2019-05-21T12:02:13.415Z,8.88
2019-05-21T12:04:41.820Z,7.83
2019-05-21T12:07:10.268Z,8.80
2019-05-21T12:09:38.699Z,8.80
2019-05-21T12:12:07.106Z,8.37
2019-05-21T12:14:35.501Z,7.47
2019-05-21T12:17:03.913Z,7.90
2019-05-21T12:19:32.290Z,7.07
2019-05-21T12:22:00.698Z,7.10
2019-05-21T12:24:29.100Z,7.47
2019-05-21T12:26:57.543Z,8.07
2019-05-21T12:29:26.018Z,5.87
2019-05-21T12:31:54.477Z,7.50
2019-05-21T12:34:22.820Z,6.97
2019-05-21T12:36:51.238Z,7.20
2019-05-21T12:39:19.627Z,8.03
2019-05-21T12:41:48.026Z,7.90
2019-05-21T12:44:16.425Z,7.40
2019-05-21T12:46:44.828Z,9.73
2019-05-21T12:49:12.220Z,10.50
2019-05-21T12:51:40.601Z,12.77
2019-05-21T12:54:09.024Z,11.37
2019-05-21T12:56:40.735Z,10.77
2019-05-21T12:59:07.634Z,11.23
2019-05-21T13:01:36.066Z,12.73
2019-05-21T13:04:04.593Z,12.43
2019-05-21T13:06:33.012Z,12.70
2019-05-21T13:09:01.477Z,15.13
2019-05-21T13:11:29.954Z,14.30
2019-05-21T13:13:58.362Z,15.20
2019-05-21T13:16:26.772Z,16.40
2019-05-21T13:18:55.182Z,15.87
2019-05-21T13:21:23.598Z,15.90
2019-05-21T13:23:51.996Z,14.80
2019-05-21T13:26:20.483Z,16.40
2019-05-21T13:28:48.887Z,16.70
2019-05-21T13:31:17.567Z,15.60
2019-05-21T13:33:46.053Z,16.37
2019-05-21T13:36:14.536Z,17.60
2019-05-21T13:38:42.929Z,16.67
2019-05-21T13:41:11.968Z,14.30
2019-05-21T13:43:40.379Z,15.80
2019-05-21T13:46:08.800Z,17.27
2019-05-21T13:48:37.217Z,15.27
2019-05-21T13:51:05.694Z,16.00
2019-05-21T13:53:34.097Z,15.60
2019-05-21T13:56:02.548Z,14.63
2019-05-21T13:58:32.099Z,15.17
2019-05-21T14:01:00.702Z,15.87
2019-05-21T14:03:29.154Z,15.37
2019-05-21T14:05:57.598Z,14.60
2019-05-21T14:08:26.251Z,15.23
2019-05-21T14:10:54.676Z,16.53
2019-05-21T14:13:23.226Z,16.10
2019-05-21T14:15:51.647Z,16.53
2019-05-21T14:18:20.052Z,16.20
2019-05-21T14:20:48.451Z,15.30
2019-05-21T14:23:16.875Z,15.33
2019-05-21T14:25:45.274Z,15.10
2019-05-21T14:28:13.698Z,15.27
2019-05-21T14:30:42.106Z,16.60
2019-05-21T14:33:10.528Z,16.10
2019-05-21T14:35:38.948Z,14.90
2019-05-21T14:38:07.393Z,15.43
2019-05-21T14:40:35.967Z,14.80
2019-05-21T14:43:04.424Z,14.80
2019-05-21T14:45:34.309Z,14.17
2019-05-21T14:48:03.032Z,13.70
2019-05-21T14:50:31.437Z,14.60
2019-05-21T14:52:59.867Z,15.23
2019-05-21T14:55:28.265Z,14.67
2019-05-21T14:57:58.834Z,14.80
2019-05-21T15:00:32.020Z,16.30
2019-05-21T15:03:00.437Z,14.30
2019-05-21T15:05:28.850Z,13.17
2019-05-21T15:07:57.270Z,13.30
2019-05-21T15:10:25.682Z,14.13
2019-05-21T15:12:54.093Z,13.30
2019-05-21T15:15:22.506Z,14.77
2019-05-21T15:17:50.917Z,12.70
2019-05-21T15:20:21.200Z,14.30
2019-05-21T15:22:49.617Z,15.40
2019-05-21T15:25:18.021Z,14.57
2019-05-21T15:27:46.450Z,15.40
2019-05-21T15:30:15.014Z,15.17
2019-05-21T15:32:43.444Z,13.70
2019-05-21T15:35:12.297Z,14.67
2019-05-21T15:37:44.660Z,14.33
2019-05-21T15:40:11.379Z,13.80
2019-05-21T15:42:39.815Z,16.23
2019-05-21T15:45:08.608Z,14.50
2019-05-21T15:47:37.007Z,15.17
2019-05-21T15:50:06.159Z,15.47
2019-05-21T15:52:34.586Z,17.50
2019-05-21T15:55:06.783Z,15.20
2019-05-21T15:57:33.205Z,17.03
2019-05-21T16:00:01.614Z,16.20
2019-05-21T16:02:30.033Z,16.30
2019-05-21T16:04:58.444Z,17.37
2019-05-21T16:07:26.870Z,17.30
2019-05-21T16:09:55.263Z,17.23
2019-05-21T16:12:23.748Z,17.67
2019-05-21T16:14:52.168Z,18.17
2019-05-21T16:17:20.571Z,17.93
2019-05-21T16:19:48.986Z,18.67
2019-05-21T16:22:17.391Z,17.40
2019-05-21T16:24:45.805Z,17.97
2019-05-21T16:27:14.216Z,17.60
2019-05-21T16:29:42.657Z,19.10
2019-05-21T16:32:11.089Z,19.30
2019-05-21T16:34:39.517Z,19.67
2019-05-21T16:37:07.934Z,19.30
2019-05-21T16:39:36.361Z,19.40
2019-05-21T16:42:05.127Z,19.80
2019-05-21T16:44:33.599Z,20.63
2019-05-21T16:47:02.289Z,21.50
2019-05-21T16:49:30.763Z,19.50
2019-05-21T16:51:59.230Z,20.67
2019-05-21T16:54:27.655Z,21.67
2019-05-21T16:56:56.074Z,22.33
2019-05-21T16:59:24.489Z,21.80
2019-05-21T17:01:52.902Z,23.20
2019-05-21T17:04:21.319Z,23.50
2019-05-21T17:06:49.767Z,22.47
2019-05-21T17:09:18.266Z,25.57
2019-05-21T17:11:58.924Z,24.27
2019-05-21T17:14:16.824Z,25.27
2019-05-21T17:16:45.233Z,26.00
2019-05-21T17:19:13.639Z,24.07
2019-05-21T17:21:42.043Z,22.53
2019-05-21T17:24:10.466Z,22.17
2019-05-21T17:26:38.885Z,24.27
2019-05-21T17:29:07.297Z,22.70
2019-05-21T17:31:35.706Z,24.90
2019-05-21T17:34:04.126Z,22.30
2019-05-21T17:36:32.561Z,21.83
2019-05-21T17:39:00.982Z,23.30
2019-05-21T17:41:29.389Z,22.50
2019-05-21T17:43:57.805Z,21.10
2019-05-21T17:46:26.221Z,22.70
2019-05-21T17:48:54.640Z,21.73
2019-05-21T17:51:23.045Z,21.50
2019-05-21T17:53:51.460Z,22.90
2019-05-21T17:56:19.869Z,20.63
2019-05-21T17:58:48.463Z,21.70
2019-05-21T18:01:16.877Z,21.43
2019-05-21T18:03:45.315Z,21.80
2019-05-21T18:06:14.468Z,22.10
2019-05-21T18:08:43.031Z,21.73
2019-05-21T18:11:12.143Z,20.97
2019-05-21T18:13:42.064Z,20.50
2019-05-21T18:16:11.288Z,19.70
2019-05-21T18:18:39.974Z,22.10
2019-05-21T18:21:08.824Z,22.57
2019-05-21T18:23:37.636Z,21.13
2019-05-21T18:26:06.296Z,21.60
2019-05-21T18:28:34.703Z,21.03
2019-05-21T18:31:03.277Z,21.67
2019-05-21T18:33:31.684Z,21.30
2019-05-21T18:36:00.110Z,21.70
2019-05-21T18:38:28.581Z,21.50
2019-05-21T18:40:57.013Z,22.07
2019-05-21T18:43:25.510Z,22.27
2019-05-21T18:45:53.923Z,22.40
2019-05-21T18:48:22.333Z,23.13
2019-05-21T18:50:50.747Z,25.40
2019-05-21T18:53:19.145Z,23.73
2019-05-21T18:55:47.569Z,24.47
2019-05-21T18:58:17.477Z,24.43
2019-05-21T19:00:46.597Z,24.57
2019-05-21T19:03:15.018Z,23.97
2019-05-21T19:05:43.580Z,24.63
2019-05-21T19:08:12.013Z,23.27
2019-05-21T19:10:40.433Z,23.87
2019-05-21T19:13:08.846Z,23.67
2019-05-21T19:15:37.334Z,24.23
2019-05-21T19:18:05.748Z,24.67
2019-05-21T19:20:34.167Z,26.77
2019-05-21T19:23:02.580Z,26.57
2019-05-21T19:25:31.029Z,25.10
2019-05-21T19:27:59.426Z,24.67
2019-05-21T19:30:28.150Z,24.50
2019-05-21T19:32:56.770Z,25.50
2019-05-21T19:35:25.254Z,24.37
2019-05-21T19:37:53.743Z,26.40
2019-05-21T19:40:22.332Z,24.80
2019-05-21T19:42:54.865Z,26.33
2019-05-21T19:45:21.090Z,26.50
2019-05-21T19:47:49.498Z,25.97
2019-05-21T19:50:17.923Z,26.20
2019-05-21T19:52:46.335Z,27.87
2019-05-21T19:55:14.826Z,28.03
2019-05-21T19:57:43.632Z,26.60
2019-05-21T20:00:15.115Z,26.90
2019-05-21T20:02:43.548Z,26.93
2019-05-21T20:05:12.397Z,25.17
2019-05-21T20:07:41.398Z,25.60
2019-05-21T20:10:10.314Z,24.97
2019-05-21T20:12:38.875Z,24.77
2019-05-21T20:15:09.756Z,25.40
2019-05-21T20:17:39.846Z,24.87
2019-05-21T20:20:10.207Z,23.27
2019-05-21T20:22:39.770Z,25.20
2019-05-21T20:25:08.468Z,25.00
2019-05-21T20:27:36.962Z,24.80
2019-05-21T20:30:13.147Z,23.40
2019-05-21T20:32:42.883Z,24.10
2019-05-21T20:35:13.277Z,23.47
2019-05-21T20:37:43.316Z,24.97
2019-05-21T20:40:13.453Z,24.57
2019-05-21T20:42:42.595Z,22.30
2019-05-21T20:45:14.478Z,23.67
2019-05-21T20:47:44.520Z,23.47
2019-05-21T20:50:14.924Z,24.60
2019-05-21T20:52:43.794Z,24.47
2019-05-21T20:55:12.265Z,24.00
2019-05-21T20:57:41.046Z,25.47
2019-05-21T21:00:10.970Z,26.00
2019-05-21T21:02:41.631Z,26.73
2019-05-21T21:05:11.985Z,27.57
2019-05-21T21:07:41.121Z,28.17
2019-05-21T21:10:11.846Z,26.70
2019-05-21T21:12:41.872Z,26.60
2019-05-21T21:15:11.488Z,26.33
2019-05-21T21:17:40.161Z,24.83
2019-05-21T21:20:09.922Z,24.73
2019-05-21T21:22:38.334Z,22.83
2019-05-21T21:25:07.266Z,25.60
2019-05-21T21:27:36.513Z,23.17
2019-05-21T21:30:08.580Z,24.27
2019-05-21T21:32:37.165Z,25.20
2019-05-21T21:35:06.476Z,24.20
2019-05-21T21:37:35.053Z,24.70
2019-05-21T21:40:05.277Z,25.43
2019-05-21T21:42:33.762Z,25.57
2019-05-21T21:45:02.171Z,24.73
2019-05-21T21:47:30.965Z,26.10
2019-05-21T21:49:59.444Z,26.43
2019-05-21T21:52:29.798Z,30.07
2019-05-21T21:54:58.277Z,27.60
2019-05-21T21:57:26.706Z,28.27
2019-05-21T21:59:55.591Z,29.70
2019-05-21T22:02:31.055Z,30.00
2019-05-21T22:04:59.976Z,28.80
2019-05-21T22:07:28.780Z,29.20
2019-05-21T22:09:57.246Z,30.17
2019-05-21T22:12:26.771Z,30.10
2019-05-21T22:14:57.654Z,30.33
2019-05-21T22:17:26.153Z,30.53
2019-05-21T22:19:54.555Z,30.00
2019-05-21T22:22:23.521Z,29.97
2019-05-21T22:24:51.934Z,30.47
2019-05-21T22:27:20.813Z,31.43
2019-05-21T22:29:49.218Z,33.23
2019-05-21T22:32:17.646Z,31.40
2019-05-21T22:34:46.064Z,33.57
2019-05-21T22:37:16.276Z,32.93
2019-05-21T22:39:45.972Z,31.97
2019-05-21T22:42:16.064Z,31.10
2019-05-21T22:44:44.700Z,33.97
2019-05-21T22:47:14.158Z,32.30
2019-05-21T22:49:42.563Z,32.07
2019-05-21T22:52:11.070Z,30.37
2019-05-21T22:54:39.490Z,33.43
2019-05-21T22:57:07.895Z,31.03
2019-05-21T22:59:36.330Z,29.80
2019-05-21T23:02:06.554Z,30.70
2019-05-21T23:04:35.043Z,30.43
2019-05-21T23:07:04.425Z,33.37
2019-05-21T23:09:32.843Z,32.70
2019-05-21T23:12:01.627Z,31.60
2019-05-21T23:14:30.410Z,30.53
2019-05-21T23:16:58.811Z,30.80
2019-05-21T23:19:27.909Z,33.53
2019-05-21T23:21:56.591Z,32.30
2019-05-21T23:24:25.915Z,31.83
2019-05-21T23:26:55.295Z,32.17
2019-05-21T23:29:24.160Z,30.87
2019-05-21T23:31:53.398Z,31.50
2019-05-21T23:34:22.559Z,30.80
2019-05-21T23:36:51.448Z,29.90
2019-05-21T23:39:21.571Z,30.70
2019-05-21T23:41:50.126Z,27.90
2019-05-21T23:44:18.556Z,28.00
2019-05-21T23:46:47.035Z,27.40
2019-05-21T23:49:15.518Z,28.67
2019-05-21T23:51:44.003Z,28.50
2019-05-21T23:54:12.786Z,29.03
2019-05-21T23:56:41.189Z,26.43
2019-05-21T23:59:09.610Z,28.70
